Time;durP1;ratioP1;P1;durP2;ratioP2;P2;SDS_P1;SDS_P2;PMS_P1;PMS_P2;Temp;Humidity;BMP_temperature;BMP_pressure;BME280_temperature;BME280_humidity;BME280_pressure;Samples;Min_cycle;Max_cycle;Signal;HPM_P1;HPM_P2
2024/02/02 00:00:42;;;;;;;14.95;9.50;;;;;;;;;;4952216;28;20043;-70
2024/02/02 00:03:08;;;;;;;15.73;9.32;;;;;;;;;;4954263;28;20046;-70
2024/02/02 00:05:34;;;;;;;20.95;10.20;;;;;;;;;;4952084;28;20031;-70
2024/02/02 00:08:01;;;;;;;16.42;10.65;;;;;;;;;;4954274;28;20047;-70
2024/02/02 00:10:27;;;;;;;20.27;12.32;;;;;;;;;;4952041;28;20483;-70
2024/02/02 00:12:55;;;;;;;21.08;13.20;;;;;;;;;;4951149;28;20039;-70
2024/02/02 00:15:21;;;;;;;21.70;13.50;;;;;;;;;;4951876;28;20039;-70
2024/02/02 00:17:48;;;;;;;18.95;11.65;;;;;;;;;;4950931;28;20242;-70
2024/02/02 00:20:14;;;;;;;16.85;11.27;;;;;;;;;;4950879;28;20050;-69
2024/02/02 00:22:40;;;;;;;18.33;11.32;;;;;;;;;;4952927;28;20050;-70
2024/02/02 00:25:06;;;;;;;18.15;10.85;;;;;;;;;;4946577;28;20416;-70
2024/02/02 00:27:33;;;;;;;17.67;10.73;;;;;;;;;;4951354;28;20562;-70
2024/02/02 00:29:59;;;;;;;16.83;10.68;;;;;;;;;;4953913;28;20043;-70
2024/02/02 00:32:25;;;;;;;14.50;9.40;;;;;;;;;;4953462;28;20035;-70
2024/02/02 00:34:51;;;;;;;16.90;10.60;;;;;;;;;;4951604;28;20058;-69
2024/02/02 00:37:17;;;;;;;18.85;9.68;;;;;;;;;;4957903;28;20050;-70
2024/02/02 00:39:44;;;;;;;19.58;11.18;;;;;;;;;;4958124;28;20042;-69
2024/02/02 00:42:10;;;;;;;18.48;11.18;;;;;;;;;;4959448;28;20031;-69
2024/02/02 00:44:36;;;;;;;18.85;11.13;;;;;;;;;;4954619;28;20459;-68
2024/02/02 00:47:03;;;;;;;17.42;10.43;;;;;;;;;;4950801;28;20042;-69
2024/02/02 00:49:29;;;;;;;17.02;9.93;;;;;;;;;;4952033;28;20046;-69
2024/02/02 00:51:55;;;;;;;17.38;10.07;;;;;;;;;;4956327;28;20053;-68
2024/02/02 00:54:21;;;;;;;15.93;9.88;;;;;;;;;;4953447;28;20062;-69
2024/02/02 00:56:47;;;;;;;14.95;8.68;;;;;;;;;;4952972;28;20051;-69
2024/02/02 00:59:13;;;;;;;15.98;9.18;;;;;;;;;;4955030;28;20046;-68
2024/02/02 01:01:40;;;;;;;16.13;9.18;;;;;;;;;;4953120;29;20054;-69
2024/02/02 01:04:06;;;;;;;16.73;9.57;;;;;;;;;;4954058;28;20047;-69
2024/02/02 01:06:32;;;;;;;17.00;9.88;;;;;;;;;;4947107;28;20044;-69
2024/02/02 01:08:58;;;;;;;19.35;9.27;;;;;;;;;;4954777;28;20043;-70
2024/02/02 01:11:25;;;;;;;17.10;9.32;;;;;;;;;;4955574;28;20038;-69
2024/02/02 01:13:51;;;;;;;19.27;9.73;;;;;;;;;;4955294;28;20039;-69
2024/02/02 01:16:18;;;;;;;15.75;9.63;;;;;;;;;;4950253;28;20647;-70
2024/02/02 01:18:44;;;;;;;17.00;9.57;;;;;;;;;;4956449;28;20054;-69
2024/02/02 01:21:10;;;;;;;20.20;9.88;;;;;;;;;;4954767;28;20533;-69
2024/02/02 01:23:36;;;;;;;21.33;10.25;;;;;;;;;;4937840;29;20050;-69
2024/02/02 01:26:04;;;;;;;17.02;10.18;;;;;;;;;;4949710;28;20039;-69
2024/02/02 01:28:30;;;;;;;16.85;9.73;;;;;;;;;;4957681;28;20630;-69
2024/02/02 01:30:56;;;;;;;19.75;10.05;;;;;;;;;;4954236;28;20033;-69
2024/02/02 01:33:22;;;;;;;17.88;10.25;;;;;;;;;;4954834;28;20054;-69
2024/02/02 01:35:48;;;;;;;23.30;10.57;;;;;;;;;;4956884;28;20050;-69
2024/02/02 01:38:14;;;;;;;16.75;9.57;;;;;;;;;;4953805;28;20046;-70
2024/02/02 01:40:41;;;;;;;19.95;10.23;;;;;;;;;;4958550;28;20480;-69
2024/02/02 01:43:07;;;;;;;17.05;9.50;;;;;;;;;;4956991;28;20042;-69
2024/02/02 01:45:34;;;;;;;18.58;9.40;;;;;;;;;;4952451;28;20050;-69
2024/02/02 01:48:00;;;;;;;17.63;9.85;;;;;;;;;;4952779;28;20050;-69
2024/02/02 01:50:26;;;;;;;15.10;8.85;;;;;;;;;;4935164;29;20050;-69
2024/02/02 01:52:52;;;;;;;17.88;8.70;;;;;;;;;;4954742;28;20051;-70
2024/02/02 01:55:18;;;;;;;18.38;9.20;;;;;;;;;;4951931;28;20403;-69
2024/02/02 01:57:45;;;;;;;14.50;8.40;;;;;;;;;;4976404;23;20054;-63
2024/02/02 02:00:13;;;;;;;17.10;9.00;;;;;;;;;;4953182;28;20035;-63
2024/02/02 02:02:39;;;;;;;19.00;9.27;;;;;;;;;;4975029;28;20050;-63
2024/02/02 02:05:06;;;;;;;18.98;8.32;;;;;;;;;;4975164;28;20029;-63
2024/02/02 02:07:32;;;;;;;18.48;8.57;;;;;;;;;;4975276;28;20069;-62
2024/02/02 02:09:58;;;;;;;17.77;8.70;;;;;;;;;;4956758;28;20502;-62
2024/02/02 02:12:24;;;;;;;19.98;9.40;;;;;;;;;;4957115;28;20047;-63
2024/02/02 02:14:51;;;;;;;14.88;8.70;;;;;;;;;;4951626;28;20486;-63
2024/02/02 02:17:17;;;;;;;16.70;8.25;;;;;;;;;;4950441;28;20043;-62
2024/02/02 02:19:47;;;;;;;15.00;7.85;;;;;;;;;;4952620;28;20427;-63
2024/02/02 02:22:13;;;;;;;;;;;;;;;;;;4953440;28;20457;-62
2024/02/02 02:24:39;;;;;;;14.27;6.50;;;;;;;;;;4951569;28;19976;-63
2024/02/02 02:27:05;;;;;;;11.93;6.47;;;;;;;;;;4949975;28;20031;-62
2024/02/02 02:29:31;;;;;;;14.10;6.60;;;;;;;;;;4953952;28;20043;-63
2024/02/02 02:31:57;;;;;;;13.10;6.57;;;;;;;;;;4953010;29;20526;-63
2024/02/02 02:34:26;;;;;;;12.60;6.18;;;;;;;;;;4955549;28;20055;-62
2024/02/02 02:36:55;;;;;;;10.32;5.53;;;;;;;;;;4955497;28;20034;-63
2024/02/02 02:39:21;;;;;;;11.80;6.10;;;;;;;;;;4952465;28;20043;-62
2024/02/02 02:41:47;;;;;;;11.57;5.78;;;;;;;;;;4953070;28;20055;-63
2024/02/02 02:44:13;;;;;;;15.85;6.30;;;;;;;;;;4953259;28;20058;-62
2024/02/02 02:46:40;;;;;;;12.48;5.55;;;;;;;;;;4951353;28;20495;-62
2024/02/02 02:49:07;;;;;;;12.15;6.25;;;;;;;;;;4953223;28;20515;-63
2024/02/02 02:51:33;;;;;;;13.48;6.18;;;;;;;;;;4953205;28;20062;-63
2024/02/02 02:53:59;;;;;;;13.10;6.75;;;;;;;;;;4952951;28;20035;-62
2024/02/02 02:56:26;;;;;;;11.50;6.25;;;;;;;;;;4950802;28;20042;-62
2024/02/02 02:58:52;;;;;;;11.48;6.07;;;;;;;;;;4948438;28;20054;-63
2024/02/02 03:01:18;;;;;;;11.88;6.05;;;;;;;;;;4952425;28;20491;-62
2024/02/02 03:03:45;;;;;;;10.82;6.00;;;;;;;;;;4952204;28;20047;-63
2024/02/02 03:06:11;;;;;;;15.55;7.07;;;;;;;;;;4955326;28;20054;-62
2024/02/02 03:08:37;;;;;;;14.65;6.93;;;;;;;;;;4952013;28;20035;-62
2024/02/02 03:11:04;;;;;;;13.15;6.53;;;;;;;;;;4952664;28;20043;-63
2024/02/02 03:13:30;;;;;;;13.90;6.65;;;;;;;;;;4953179;28;20098;-63
2024/02/02 03:15:56;;;;;;;11.35;6.78;;;;;;;;;;4951706;28;20042;-63
2024/02/02 03:18:22;;;;;;;14.40;5.97;;;;;;;;;;4953261;28;20027;-62
2024/02/02 03:20:48;;;;;;;12.73;6.45;;;;;;;;;;4953845;28;20050;-63
2024/02/02 03:23:14;;;;;;;11.88;6.45;;;;;;;;;;4953384;28;20101;-63
2024/02/02 03:25:41;;;;;;;13.73;6.97;;;;;;;;;;4952314;28;20491;-63
2024/02/02 03:28:07;;;;;;;11.65;6.43;;;;;;;;;;4954520;28;20042;-63
2024/02/02 03:30:33;;;;;;;9.30;5.63;;;;;;;;;;4950542;28;20042;-63
2024/02/02 03:32:59;;;;;;;9.00;5.70;;;;;;;;;;4951547;28;20051;-63
2024/02/02 03:35:25;;;;;;;9.35;5.80;;;;;;;;;;4954869;28;20047;-63
2024/02/02 03:37:51;;;;;;;7.97;4.95;;;;;;;;;;4951039;28;20043;-62
2024/02/02 03:40:18;;;;;;;8.48;5.43;;;;;;;;;;4952543;28;20031;-63
2024/02/02 03:42:44;;;;;;;8.15;4.80;;;;;;;;;;4952346;28;20034;-62
2024/02/02 03:45:11;;;;;;;8.52;5.25;;;;;;;;;;4951388;28;20380;-61
2024/02/02 03:47:37;;;;;;;9.85;5.50;;;;;;;;;;4949909;28;20410;-65
2024/02/02 03:50:03;;;;;;;10.55;5.55;;;;;;;;;;4948590;28;20063;-62
2024/02/02 03:52:30;;;;;;;10.20;5.47;;;;;;;;;;4949435;29;20042;-62
2024/02/02 03:54:57;;;;;;;10.20;5.07;;;;;;;;;;4949955;28;20031;-63
2024/02/02 03:57:23;;;;;;;9.18;5.70;;;;;;;;;;4952554;28;20031;-63
2024/02/02 03:59:49;;;;;;;8.13;5.03;;;;;;;;;;4951979;28;20399;-63
2024/02/02 04:02:15;;;;;;;8.00;5.00;;;;;;;;;;4954246;28;20070;-62
2024/02/02 04:04:41;;;;;;;7.40;4.57;;;;;;;;;;4951975;28;20423;-63
2024/02/02 04:07:07;;;;;;;6.95;4.40;;;;;;;;;;4951277;28;20055;-63
2024/02/02 04:09:33;;;;;;;8.10;4.97;;;;;;;;;;4952971;28;20039;-63
2024/02/02 04:11:59;;;;;;;7.20;4.78;;;;;;;;;;4954789;28;20038;-63
2024/02/02 04:14:25;;;;;;;6.65;4.32;;;;;;;;;;4952058;28;20043;-63
2024/02/02 04:16:52;;;;;;;7.93;4.72;;;;;;;;;;4952658;28;20048;-63
2024/02/02 04:19:19;;;;;;;7.47;4.05;;;;;;;;;;4951912;28;20042;-63
2024/02/02 04:21:45;;;;;;;9.13;4.20;;;;;;;;;;4952690;28;20047;-63
2024/02/02 04:24:11;;;;;;;5.75;4.28;;;;;;;;;;4950535;28;20044;-63
2024/02/02 04:26:37;;;;;;;7.55;4.55;;;;;;;;;;4951836;29;20042;-63
2024/02/02 04:29:04;;;;;;;6.65;4.65;;;;;;;;;;4951871;29;20609;-64
2024/02/02 04:31:30;;;;;;;9.63;4.93;;;;;;;;;;4957002;28;20562;-63
2024/02/02 04:33:56;;;;;;;6.72;4.40;;;;;;;;;;4951647;28;20062;-62
2024/02/02 04:36:22;;;;;;;7.60;4.47;;;;;;;;;;4955037;28;20043;-64
2024/02/02 04:38:48;;;;;;;7.75;5.00;;;;;;;;;;4951962;28;20035;-64
2024/02/02 04:41:15;;;;;;;7.63;4.90;;;;;;;;;;4951883;28;21605;-64
2024/02/02 04:43:42;;;;;;;8.50;4.68;;;;;;;;;;4952200;28;20043;-62
2024/02/02 04:46:08;;;;;;;6.50;4.70;;;;;;;;;;4951474;28;20519;-63
2024/02/02 04:48:34;;;;;;;6.95;4.47;;;;;;;;;;4949792;28;20050;-64
2024/02/02 04:51:00;;;;;;;7.07;4.43;;;;;;;;;;4948423;28;20046;-64
2024/02/02 04:53:26;;;;;;;8.52;4.82;;;;;;;;;;4949914;28;20039;-63
2024/02/02 04:55:52;;;;;;;9.68;4.43;;;;;;;;;;4950747;28;20065;-62
2024/02/02 04:58:18;;;;;;;10.15;4.50;;;;;;;;;;4946645;28;20046;-64
2024/02/02 05:00:45;;;;;;;7.90;4.50;;;;;;;;;;4951481;28;20063;-63
2024/02/02 05:03:11;;;;;;;7.82;5.22;;;;;;;;;;4951035;28;20426;-62
2024/02/02 05:05:37;;;;;;;8.13;4.75;;;;;;;;;;4948294;28;20043;-63
2024/02/02 05:08:04;;;;;;;8.40;5.30;;;;;;;;;;4949971;28;20055;-62
2024/02/02 05:10:30;;;;;;;8.05;4.97;;;;;;;;;;4951295;28;20415;-63
2024/02/02 05:12:56;;;;;;;10.15;5.32;;;;;;;;;;4949660;29;20054;-63
2024/02/02 05:15:22;;;;;;;11.32;5.22;;;;;;;;;;4951292;28;20403;-63
2024/02/02 05:17:48;;;;;;;8.15;4.68;;;;;;;;;;4951260;28;20046;-63
2024/02/02 05:20:14;;;;;;;12.23;4.78;;;;;;;;;;4952531;28;20055;-63
2024/02/02 05:22:40;;;;;;;8.05;4.40;;;;;;;;;;4946282;28;20069;-62
2024/02/02 05:25:07;;;;;;;9.10;4.85;;;;;;;;;;4952099;28;20523;-63
2024/02/02 05:27:33;;;;;;;10.63;5.75;;;;;;;;;;4953977;28;20558;-64
2024/02/02 05:30:00;;;;;;;12.35;5.53;;;;;;;;;;4951253;28;20035;-63
2024/02/02 05:32:26;;;;;;;13.30;6.63;;;;;;;;;;4957297;28;20062;-63
2024/02/02 05:34:52;;;;;;;7.70;5.00;;;;;;;;;;4957138;28;20388;-63
2024/02/02 05:37:18;;;;;;;11.10;6.13;;;;;;;;;;4957010;28;20046;-65
2024/02/02 05:39:44;;;;;;;11.15;5.60;;;;;;;;;;4954624;28;20047;-63
2024/02/02 05:42:13;;;;;;;11.52;5.13;;;;;;;;;;4957151;28;20405;-63
2024/02/02 05:44:40;;;;;;;9.15;4.70;;;;;;;;;;4951944;28;20050;-63
2024/02/02 05:47:06;;;;;;;7.25;4.78;;;;;;;;;;4954458;28;20050;-64
2024/02/02 05:49:32;;;;;;;6.88;4.32;;;;;;;;;;4954543;28;20050;-64
2024/02/02 05:51:59;;;;;;;6.78;4.30;;;;;;;;;;4955278;28;20120;-63
2024/02/02 05:54:26;;;;;;;8.63;4.70;;;;;;;;;;4951258;28;20523;-63
2024/02/02 05:56:52;;;;;;;8.98;4.95;;;;;;;;;;4952530;28;20039;-64
2024/02/02 05:59:18;;;;;;;8.18;5.00;;;;;;;;;;4951257;28;20035;-64
2024/02/02 06:01:45;;;;;;;9.63;5.00;;;;;;;;;;4956575;28;20042;-63
2024/02/02 06:04:11;;;;;;;7.63;4.93;;;;;;;;;;4957835;28;20054;-64
2024/02/02 06:06:37;;;;;;;8.13;4.25;;;;;;;;;;4962562;28;20035;-63
2024/02/02 06:09:05;;;;;;;8.40;4.50;;;;;;;;;;4953540;28;20039;-63
2024/02/02 06:11:31;;;;;;;8.40;5.25;;;;;;;;;;4954826;28;20055;-65
2024/02/02 06:13:57;;;;;;;7.97;4.80;;;;;;;;;;4954744;28;20039;-62
2024/02/02 06:16:24;;;;;;;7.03;4.10;;;;;;;;;;4952590;28;20039;-64
2024/02/02 06:18:50;;;;;;;8.30;5.40;;;;;;;;;;4946422;28;20715;-63
2024/02/02 06:21:17;;;;;;;8.35;4.97;;;;;;;;;;4954892;28;20035;-63
2024/02/02 06:23:43;;;;;;;8.55;5.20;;;;;;;;;;4954675;28;20399;-62
2024/02/02 06:26:09;;;;;;;8.05;4.60;;;;;;;;;;4952469;28;20054;-63
2024/02/02 06:28:35;;;;;;;6.15;4.15;;;;;;;;;;4952516;28;20039;-63
2024/02/02 06:31:01;;;;;;;6.95;4.47;;;;;;;;;;4953561;28;20043;-64
2024/02/02 06:33:27;;;;;;;8.52;4.55;;;;;;;;;;4955102;28;20517;-64
2024/02/02 06:35:53;;;;;;;7.28;4.45;;;;;;;;;;4955710;28;20035;-65
2024/02/02 06:38:19;;;;;;;7.53;4.20;;;;;;;;;;4953700;28;20062;-65
2024/02/02 06:40:46;;;;;;;6.60;4.13;;;;;;;;;;4954620;28;20046;-63
2024/02/02 06:43:12;;;;;;;9.48;4.40;;;;;;;;;;4950461;28;20466;-63
2024/02/02 06:45:38;;;;;;;6.75;4.68;;;;;;;;;;4948612;28;20023;-63
2024/02/02 06:48:09;;;;;;;7.47;4.80;;;;;;;;;;4951887;28;20054;-63
2024/02/02 06:50:35;;;;;;;8.38;4.95;;;;;;;;;;4950851;28;20399;-64
2024/02/02 06:53:02;;;;;;;6.82;4.82;;;;;;;;;;4951939;28;20058;-65
2024/02/02 06:55:28;;;;;;;8.40;5.18;;;;;;;;;;4943658;28;20054;-64
2024/02/02 06:57:55;;;;;;;11.50;5.32;;;;;;;;;;4949562;28;20123;-65
2024/02/02 07:00:21;;;;;;;7.70;5.10;;;;;;;;;;4951354;28;20031;-63
2024/02/02 07:02:48;;;;;;;8.60;5.13;;;;;;;;;;4956314;28;20058;-63
2024/02/02 07:05:15;;;;;;;8.25;5.43;;;;;;;;;;4951527;28;20043;-64
2024/02/02 07:07:41;;;;;;;7.57;4.45;;;;;;;;;;4952846;28;20054;-63
2024/02/02 07:10:15;;;;;;;7.40;4.72;;;;;;;;;;4955838;28;20565;-63
2024/02/02 07:12:53;;;;;;;7.93;5.15;;;;;;;;;;4952268;28;20047;-64
2024/02/02 07:15:21;;;;;;;8.80;4.80;;;;;;;;;;4949140;28;20039;-64
2024/02/02 07:17:48;;;;;;;8.70;5.07;;;;;;;;;;4955856;28;20062;-63
2024/02/02 07:20:30;;;;;;;7.85;5.28;;;;;;;;;;4950893;28;20043;-64
2024/02/02 07:22:58;;;;;;;7.93;4.68;;;;;;;;;;4951247;28;20058;-62
2024/02/02 07:25:25;;;;;;;9.55;5.00;;;;;;;;;;4950066;28;20035;-65
2024/02/02 07:27:54;;;;;;;8.23;4.30;;;;;;;;;;4952928;28;20051;-63
2024/02/02 07:30:32;;;;;;;6.67;4.53;;;;;;;;;;4949882;28;20060;-62
2024/02/02 07:32:59;;;;;;;8.57;4.70;;;;;;;;;;4946817;28;20514;-62
2024/02/02 07:35:31;;;;;;;6.18;4.38;;;;;;;;;;4951315;28;20051;-63
2024/02/02 07:38:03;;;;;;;7.53;4.50;;;;;;;;;;4954171;28;20039;-62
2024/02/02 07:40:29;;;;;;;7.75;4.88;;;;;;;;;;4948018;28;20047;-62
2024/02/02 07:42:59;;;;;;;6.50;4.20;;;;;;;;;;4946164;28;20050;-63
2024/02/02 07:45:25;;;;;;;6.40;4.35;;;;;;;;;;4950317;28;20434;-62
2024/02/02 07:47:52;;;;;;;8.57;4.35;;;;;;;;;;4951341;28;20054;-62
2024/02/02 07:50:18;;;;;;;6.75;4.47;;;;;;;;;;4949966;28;20061;-61
2024/02/02 07:52:44;;;;;;;7.07;4.57;;;;;;;;;;4944556;28;20052;-62
2024/02/02 07:55:10;;;;;;;6.88;4.07;;;;;;;;;;4948929;28;20074;-62
2024/02/02 07:57:36;;;;;;;6.38;4.07;;;;;;;;;;4948587;28;20054;-63
2024/02/02 08:00:02;;;;;;;6.32;4.50;;;;;;;;;;4991803;23;20410;-66
2024/02/02 08:02:38;;;;;;;6.13;4.00;;;;;;;;;;4966435;28;20571;-67
2024/02/02 08:05:07;;;;;;;7.05;4.50;;;;;;;;;;4986501;28;20062;-67
2024/02/02 08:07:37;;;;;;;;;;;;;;;;;;4988741;28;20034;-67
2024/02/02 08:10:04;;;;;;;7.70;4.35;;;;;;;;;;4976394;28;19913;-67
2024/02/02 08:12:30;;;;;;;8.13;4.50;;;;;;;;;;4969961;28;20035;-67
2024/02/02 08:14:57;;;;;;;7.22;4.40;;;;;;;;;;4971037;28;20045;-68
2024/02/02 08:17:23;;;;;;;7.63;4.43;;;;;;;;;;4971260;28;20031;-68
2024/02/02 08:19:49;;;;;;;6.32;4.18;;;;;;;;;;4967332;28;20058;-68
2024/02/02 08:22:15;;;;;;;7.65;4.95;;;;;;;;;;4966051;28;20415;-65
2024/02/02 08:24:41;;;;;;;7.88;5.05;;;;;;;;;;4968646;28;20034;-66
2024/02/02 08:27:07;;;;;;;6.60;4.50;;;;;;;;;;4967464;28;20046;-66
2024/02/02 08:29:33;;;;;;;6.43;4.30;;;;;;;;;;4969749;28;20050;-66
2024/02/02 08:31:59;;;;;;;6.35;4.10;;;;;;;;;;4964406;28;20035;-67
2024/02/02 08:34:26;;;;;;;7.38;4.70;;;;;;;;;;4967594;28;20035;-66
2024/02/02 08:36:53;;;;;;;7.05;4.18;;;;;;;;;;4968499;28;20043;-66
2024/02/02 08:39:19;;;;;;;5.20;3.92;;;;;;;;;;4963392;28;20046;-66
2024/02/02 08:41:45;;;;;;;6.05;4.28;;;;;;;;;;4965599;28;20042;-66
2024/02/02 08:44:23;;;;;;;7.13;4.60;;;;;;;;;;4962188;28;20503;-67
2024/02/02 08:46:49;;;;;;;6.35;4.35;;;;;;;;;;4967454;28;20031;-66
2024/02/02 08:49:39;;;;;;;7.03;4.30;;;;;;;;;;4966915;28;20502;-66
2024/02/02 08:52:11;;;;;;;6.53;4.38;;;;;;;;;;4968307;28;20043;-66
2024/02/02 08:54:44;;;;;;;7.80;3.83;;;;;;;;;;4967590;28;20031;-66
2024/02/02 08:57:35;;;;;;;7.18;4.35;;;;;;;;;;4971956;28;20038;-66
2024/02/02 09:00:12;;;;;;;6.30;4.10;;;;;;;;;;4971505;28;20054;-66
2024/02/02 09:02:51;;;;;;;5.95;3.67;;;;;;;;;;4970593;28;20053;-66
2024/02/02 09:05:21;;;;;;;6.45;3.67;;;;;;;;;;4973124;28;20058;-66
2024/02/02 09:07:52;;;;;;;6.47;3.83;;;;;;;;;;4973624;28;20047;-66
2024/02/02 09:10:30;;;;;;;7.22;3.97;;;;;;;;;;4974359;28;20055;-66
2024/02/02 09:13:02;;;;;;;6.00;4.07;;;;;;;;;;4971909;28;20038;-66
2024/02/02 09:15:32;;;;;;;5.85;3.83;;;;;;;;;;4968103;28;20503;-66
2024/02/02 09:17:58;;;;;;;5.75;3.60;;;;;;;;;;4970516;28;20042;-67
2024/02/02 09:20:49;;;;;;;5.20;3.70;;;;;;;;;;4973384;28;20059;-66
2024/02/02 09:23:16;;;;;;;4.88;3.22;;;;;;;;;;4973302;28;20422;-67
2024/02/02 09:25:44;;;;;;;5.43;3.50;;;;;;;;;;4968347;28;20529;-66
2024/02/02 09:28:25;;;;;;;7.25;3.65;;;;;;;;;;4973061;28;20038;-66
2024/02/02 09:31:06;;;;;;;5.35;3.47;;;;;;;;;;4986448;28;20039;-66
2024/02/02 09:33:41;;;;;;;4.95;3.10;;;;;;;;;;4971786;28;20525;-65
2024/02/02 09:36:08;;;;;;;5.43;3.20;;;;;;;;;;4969239;28;20055;-66
2024/02/02 09:38:34;;;;;;;4.93;3.65;;;;;;;;;;4965488;28;20043;-66
2024/02/02 09:41:00;;;;;;;5.28;3.45;;;;;;;;;;4963949;28;20043;-66
2024/02/02 09:43:45;;;;;;;5.78;3.63;;;;;;;;;;4968059;28;20043;-67
2024/02/02 09:46:38;;;;;;;4.55;3.05;;;;;;;;;;4971282;28;20058;-67
2024/02/02 09:49:39;;;;;;;4.80;3.38;;;;;;;;;;4970783;28;20039;-67
2024/02/02 09:52:20;;;;;;;4.90;3.10;;;;;;;;;;4968730;28;20507;-66
2024/02/02 09:54:56;;;;;;;4.05;2.90;;;;;;;;;;4943694;28;20046;-67
2024/02/02 09:57:37;;;;;;;4.30;2.80;;;;;;;;;;4962486;28;20050;-66
2024/02/02 10:00:20;;;;;;;6.63;3.90;;;;;;;;;;4969228;28;20035;-66
2024/02/02 10:03:07;;;;;;;4.18;3.03;;;;;;;;;;4973264;28;20047;-65
2024/02/02 10:05:36;;;;;;;5.10;3.28;;;;;;;;;;4968748;28;20054;-65
2024/02/02 10:08:08;;;;;;;4.65;2.88;;;;;;;;;;4961441;28;20042;-65
2024/02/02 10:10:36;;;;;;;3.97;2.95;;;;;;;;;;4960795;28;20047;-66
2024/02/02 10:13:17;;;;;;;4.13;3.13;;;;;;;;;;4971310;28;20046;-65
2024/02/02 10:16:10;;;;;;;5.50;3.15;;;;;;;;;;4950777;28;20034;-65
2024/02/02 10:18:36;;;;;;;4.22;3.03;;;;;;;;;;4968510;28;20521;-66
2024/02/02 10:21:09;;;;;;;4.43;3.13;;;;;;;;;;4970538;28;20511;-66
2024/02/02 10:23:35;;;;;;;4.40;3.17;;;;;;;;;;4962202;28;20055;-66
2024/02/02 10:26:16;;;;;;;4.78;3.03;;;;;;;;;;4957919;28;20061;-67
2024/02/02 10:29:09;;;;;;;5.53;3.42;;;;;;;;;;4966047;28;20047;-66
2024/02/02 10:31:50;;;;;;;5.38;3.22;;;;;;;;;;4969450;28;20051;-64
2024/02/02 10:34:25;;;;;;;5.03;3.17;;;;;;;;;;4968618;28;20127;-66
2024/02/02 10:37:22;;;;;;;4.70;3.25;;;;;;;;;;4965339;28;20041;-66
2024/02/02 10:43:02;;;;;;;4.35;2.97;;;;;;;;;;5092335;23;20059;-67
2024/02/02 10:45:28;;;;;;;4.43;3.03;;;;;;;;;;4960000;28;20031;-67
2024/02/02 10:48:32;;;;;;;4.25;3.25;;;;;;;;;;4960988;28;20572;-67
2024/02/02 10:51:15;;;;;;;4.25;3.15;;;;;;;;;;4965809;28;20035;-67
2024/02/02 10:53:59;;;;;;;5.03;3.10;;;;;;;;;;4960629;28;20038;-67
2024/02/02 10:56:46;;;;;;;3.90;2.88;;;;;;;;;;4964176;28;20043;-68
2024/02/02 10:59:26;;;;;;;5.07;3.05;;;;;;;;;;4965720;28;20131;-67
2024/02/02 11:02:12;;;;;;;4.32;3.05;;;;;;;;;;4965380;28;20046;-67
2024/02/02 11:04:58;;;;;;;3.78;2.95;;;;;;;;;;4969230;28;20691;-68
2024/02/02 11:07:46;;;;;;;4.20;2.80;;;;;;;;;;4968518;28;20849;-68
2024/02/02 11:10:17;;;;;;;4.75;2.90;;;;;;;;;;4976170;28;20043;-71
2024/02/02 11:13:10;;;;;;;4.50;2.92;;;;;;;;;;4962898;28;20103;-67
2024/02/02 11:15:51;;;;;;;4.45;3.03;;;;;;;;;;4962672;28;20390;-68
2024/02/02 11:18:39;;;;;;;4.90;3.08;;;;;;;;;;4968259;28;20498;-67
2024/02/02 11:21:20;;;;;;;3.83;2.92;;;;;;;;;;4962090;28;20486;-67
2024/02/02 11:23:54;;;;;;;4.32;2.78;;;;;;;;;;4962661;28;20045;-68
2024/02/02 11:26:23;;;;;;;4.50;2.90;;;;;;;;;;4960985;28;20038;-70
2024/02/02 11:28:57;;;;;;;3.35;2.63;;;;;;;;;;4955237;28;20039;-67
2024/02/02 11:31:46;;;;;;;4.60;3.00;;;;;;;;;;4957740;28;20035;-69
2024/02/02 11:34:40;;;;;;;3.40;2.33;;;;;;;;;;4977448;28;20054;-67
2024/02/02 11:37:24;;;;;;;3.03;2.30;;;;;;;;;;4961616;28;20042;-66
2024/02/02 11:39:59;;;;;;;3.58;2.35;;;;;;;;;;4955270;28;20513;-67
2024/02/02 11:42:27;;;;;;;3.53;2.60;;;;;;;;;;4967790;28;20469;-71
2024/02/02 11:44:59;;;;;;;2.83;2.35;;;;;;;;;;4961802;28;20035;-70
2024/02/02 11:47:27;;;;;;;3.20;2.83;;;;;;;;;;4963419;28;20042;-66
2024/02/02 11:50:04;;;;;;;4.35;2.47;;;;;;;;;;4966973;28;20027;-67
2024/02/02 11:52:42;;;;;;;2.80;2.42;;;;;;;;;;4960772;28;20517;-66
2024/02/02 11:55:34;;;;;;;3.78;2.50;;;;;;;;;;4962347;28;20058;-67
2024/02/02 11:58:04;;;;;;;3.33;2.10;;;;;;;;;;4965277;28;20026;-66
2024/02/02 12:00:46;;;;;;;3.65;2.63;;;;;;;;;;4963403;28;20418;-67
2024/02/02 12:03:15;;;;;;;3.05;2.38;;;;;;;;;;4965749;28;20066;-66
2024/02/02 12:05:49;;;;;;;4.55;2.30;;;;;;;;;;4961281;28;20057;-66
2024/02/02 12:08:26;;;;;;;4.63;2.50;;;;;;;;;;4958286;28;21704;-68
2024/02/02 12:10:55;;;;;;;2.83;2.50;;;;;;;;;;4954981;28;20143;-67
2024/02/02 12:13:27;;;;;;;3.47;2.45;;;;;;;;;;4963904;28;20417;-65
2024/02/02 12:15:55;;;;;;;2.45;2.13;;;;;;;;;;4958759;28;20035;-67
2024/02/02 12:18:21;;;;;;;5.45;2.45;;;;;;;;;;4964454;28;20030;-67
2024/02/02 12:20:48;;;;;;;4.18;2.40;;;;;;;;;;4964657;28;20062;-68
2024/02/02 12:23:15;;;;;;;2.47;2.28;;;;;;;;;;4951020;28;20434;-72
2024/02/02 12:25:41;;;;;;;2.97;2.30;;;;;;;;;;4960491;28;20046;-66
2024/02/02 12:28:08;;;;;;;4.22;2.15;;;;;;;;;;4957400;28;20031;-66
2024/02/02 12:30:34;;;;;;;2.55;2.20;;;;;;;;;;4957522;28;20047;-68
2024/02/02 12:33:03;;;;;;;4.55;2.38;;;;;;;;;;4961997;28;20034;-66
2024/02/02 12:35:29;;;;;;;2.33;1.90;;;;;;;;;;4967383;28;20034;-66
2024/02/02 12:37:56;;;;;;;8.73;2.03;;;;;;;;;;4967745;28;20054;-65
2024/02/02 12:40:25;;;;;;;3.63;2.10;;;;;;;;;;4968615;28;20038;-66
2024/02/02 12:42:55;;;;;;;2.88;1.98;;;;;;;;;;4970709;28;20035;-67
2024/02/02 12:45:22;;;;;;;2.20;2.00;;;;;;;;;;4969867;28;20046;-66
2024/02/02 12:47:48;;;;;;;4.72;1.65;;;;;;;;;;4963028;28;21622;-66
2024/02/02 12:50:14;;;;;;;5.35;1.67;;;;;;;;;;4970211;28;20458;-66
2024/02/02 12:52:50;;;;;;;1.70;1.52;;;;;;;;;;4971218;28;20383;-67
2024/02/02 12:55:18;;;;;;;2.13;1.83;;;;;;;;;;4971231;28;20039;-66
2024/02/02 12:57:44;;;;;;;1.80;1.52;;;;;;;;;;4969898;28;20039;-66
2024/02/02 13:00:14;;;;;;;2.42;1.60;;;;;;;;;;4971590;28;20055;-65
2024/02/02 13:02:42;;;;;;;1.98;1.25;;;;;;;;;;4966960;28;20582;-65
2024/02/02 13:05:16;;;;;;;2.20;1.63;;;;;;;;;;4964555;28;20421;-65
2024/02/02 13:07:45;;;;;;;1.98;1.45;;;;;;;;;;4959528;28;20528;-67
2024/02/02 13:10:11;;;;;;;2.03;1.65;;;;;;;;;;4961766;28;20049;-65
2024/02/02 13:12:45;;;;;;;2.13;1.45;;;;;;;;;;4968189;28;20027;-66
2024/02/02 13:15:15;;;;;;;2.20;1.50;;;;;;;;;;4965917;28;20046;-65
2024/02/02 13:17:43;;;;;;;1.90;1.35;;;;;;;;;;4969181;28;20043;-65
2024/02/02 13:20:16;;;;;;;1.65;1.33;;;;;;;;;;4963310;28;20049;-65
2024/02/02 13:22:50;;;;;;;2.05;1.10;;;;;;;;;;4971151;28;20034;-65
2024/02/02 13:25:24;;;;;;;2.78;1.15;;;;;;;;;;4966874;28;20398;-66
2024/02/02 13:27:54;;;;;;;2.00;1.15;;;;;;;;;;4966080;28;20038;-65
2024/02/02 13:30:27;;;;;;;1.45;1.15;;;;;;;;;;4967371;28;20050;-68
2024/02/02 13:32:53;;;;;;;2.00;1.50;;;;;;;;;;4971038;28;20050;-66
2024/02/02 13:35:25;;;;;;;2.85;1.38;;;;;;;;;;4967397;28;20043;-69
2024/02/02 13:37:56;;;;;;;1.40;1.10;;;;;;;;;;4968269;28;20053;-66
2024/02/02 13:40:28;;;;;;;2.72;1.80;;;;;;;;;;4971039;28;20046;-68
2024/02/02 13:42:56;;;;;;;1.95;1.38;;;;;;;;;;4962757;28;20435;-66
2024/02/02 13:45:23;;;;;;;3.20;1.35;;;;;;;;;;4971362;28;20058;-66
2024/02/02 13:47:59;;;;;;;2.78;1.33;;;;;;;;;;4970263;28;20043;-66
2024/02/02 13:50:30;;;;;;;1.67;1.40;;;;;;;;;;4969046;28;20051;-67
2024/02/02 13:52:59;;;;;;;1.20;1.10;;;;;;;;;;4965797;28;20034;-69
2024/02/02 13:55:33;;;;;;;1.50;1.10;;;;;;;;;;4969509;28;20059;-66
2024/02/02 13:58:00;;;;;;;1.30;1.20;;;;;;;;;;4968298;28;20533;-66
2024/02/02 14:00:30;;;;;;;1.95;1.10;;;;;;;;;;4966741;28;20047;-70
2024/02/02 14:03:11;;;;;;;1.98;1.10;;;;;;;;;;4969347;28;20035;-66
2024/02/02 14:05:41;;;;;;;3.75;1.30;;;;;;;;;;4968089;28;20043;-66
2024/02/02 14:08:08;;;;;;;3.53;1.55;;;;;;;;;;4966426;28;20057;-66
2024/02/02 14:10:44;;;;;;;1.77;1.40;;;;;;;;;;4965950;28;20438;-68
2024/02/02 14:13:16;;;;;;;2.70;1.40;;;;;;;;;;4981519;28;20046;-66
2024/02/02 14:15:44;;;;;;;1.40;1.20;;;;;;;;;;4967376;28;20050;-65
2024/02/02 14:18:11;;;;;;;4.00;1.67;;;;;;;;;;4963776;28;20051;-65
2024/02/02 14:20:38;;;;;;;2.38;1.30;;;;;;;;;;4963947;28;20039;-65
2024/02/02 14:23:11;;;;;;;1.90;1.50;;;;;;;;;;4965942;28;20421;-68
2024/02/02 14:25:38;;;;;;;2.35;1.23;;;;;;;;;;4964804;28;20401;-65
2024/02/02 14:28:19;;;;;;;1.58;1.20;;;;;;;;;;4958672;28;20402;-67
2024/02/02 14:30:46;;;;;;;3.25;1.20;;;;;;;;;;4964615;28;20402;-65
2024/02/02 14:33:15;;;;;;;2.90;1.63;;;;;;;;;;4971905;28;20650;-66
2024/02/02 14:35:42;;;;;;;2.33;1.38;;;;;;;;;;4964643;28;20035;-66
2024/02/02 14:38:08;;;;;;;2.22;1.40;;;;;;;;;;4959037;28;20051;-67
2024/02/02 14:40:35;;;;;;;2.97;1.50;;;;;;;;;;4967634;28;20051;-67
2024/02/02 14:43:01;;;;;;;3.33;1.92;;;;;;;;;;4966618;28;20034;-66
2024/02/02 14:45:27;;;;;;;2.80;1.48;;;;;;;;;;4967720;28;20047;-65
2024/02/02 14:47:53;;;;;;;2.55;1.30;;;;;;;;;;4969246;28;20027;-68
2024/02/02 14:50:20;;;;;;;3.40;1.52;;;;;;;;;;4967524;28;20343;-68
2024/02/02 14:52:46;;;;;;;1.55;1.33;;;;;;;;;;4965766;28;20042;-66
2024/02/02 14:55:12;;;;;;;2.38;1.20;;;;;;;;;;4966986;28;20058;-66